Time;durP1;ratioP1;P1;durP2;ratioP2;P2;SDS_P1;SDS_P2;PMS_P1;PMS_P2;Temp;Humidity;BMP_temperature;BMP_pressure;BME280_temperature;BME280_humidity;BME280_pressure;Samples;Min_cycle;Max_cycle;Signal;HPM_P1;HPM_P2
2023/05/14 00:00:26;;;;;;;20.63;12.50;;;17.70;94.70;;;;;;5037346;28;20366;-83
2023/05/14 00:02:53;;;;;;;18.83;12.02;;;17.70;94.80;;;;;;5047906;28;20362;-87
2023/05/14 00:05:19;;;;;;;22.17;12.73;;;17.70;94.70;;;;;;5016277;28;20112;-84
2023/05/14 00:07:44;;;;;;;19.50;11.90;;;17.70;94.70;;;;;;5021936;28;20595;-84
2023/05/14 00:10:10;;;;;;;20.27;12.15;;;17.70;94.70;;;;;;5040485;28;20541;-83
2023/05/14 00:12:36;;;;;;;18.80;11.95;;;17.60;94.70;;;;;;5007431;28;20306;-90
2023/05/14 00:15:03;;;;;;;20.07;12.40;;;17.60;94.70;;;;;;5024253;28;20280;-88
2023/05/14 00:17:29;;;;;;;20.50;11.88;;;17.50;94.70;;;;;;5032495;28;20516;-88
2023/05/14 00:19:55;;;;;;;20.55;11.73;;;17.50;94.70;;;;;;5005255;28;20694;-85
2023/05/14 00:22:21;;;;;;;19.98;12.27;;;17.50;94.70;;;;;;5032996;28;20042;-86
2023/05/14 00:24:46;;;;;;;19.37;12.30;;;17.40;94.80;;;;;;5020118;28;20088;-87
2023/05/14 00:27:12;;;;;;;20.77;12.48;;;17.40;94.70;;;;;;4979388;28;21831;-87
2023/05/14 00:29:38;;;;;;;20.37;12.27;;;17.40;94.80;;;;;;5041248;28;20029;-84
2023/05/14 00:32:05;;;;;;;21.15;12.48;;;17.30;94.80;;;;;;5060286;28;20021;-84
2023/05/14 00:34:30;;;;;;;20.00;12.30;;;17.30;94.80;;;;;;5020073;28;20122;-86
2023/05/14 00:36:57;;;;;;;21.15;12.68;;;17.20;94.80;;;;;;5023097;28;20025;-84
2023/05/14 00:39:22;;;;;;;18.63;12.43;;;17.20;94.80;;;;;;4995134;28;20041;-86
2023/05/14 00:41:48;;;;;;;20.65;12.75;;;17.10;94.80;;;;;;5030330;28;20025;-87
2023/05/14 00:44:14;;;;;;;19.60;11.83;;;17.10;95.10;;;;;;4990756;28;20226;-86
2023/05/14 00:46:40;;;;;;;20.40;12.40;;;17.10;94.80;;;;;;5030455;28;20074;-88
2023/05/14 00:49:05;;;;;;;20.13;11.90;;;17.00;94.80;;;;;;5042595;28;20033;-85
2023/05/14 00:51:32;;;;;;;21.85;12.38;;;16.90;94.90;;;;;;5007840;28;20025;-86
2023/05/14 00:53:58;;;;;;;20.73;12.70;;;16.90;95.20;;;;;;5020755;28;20040;-85
2023/05/14 00:56:24;;;;;;;20.85;12.80;;;16.80;94.90;;;;;;5024821;28;20610;-87
2023/05/14 00:58:50;;;;;;;20.42;12.57;;;16.80;94.90;;;;;;5005125;28;20087;-86
2023/05/14 01:01:16;;;;;;;21.27;12.77;;;16.70;94.90;;;;;;5025775;28;20733;-88
2023/05/14 01:03:43;;;;;;;20.75;12.68;;;16.70;95.00;;;;;;5035823;28;20036;-88
2023/05/14 01:06:14;;;;;;;20.00;11.85;;;16.60;95.00;;;;;;5019871;28;20410;-84
2023/05/14 01:09:00;;;;;;;19.63;12.80;;;16.60;95.00;;;;;;5012111;28;20359;-89
2023/05/14 01:11:35;;;;;;;18.80;11.47;;;16.60;94.90;;;;;;5020621;28;20281;-87
2023/05/14 01:14:22;;;;;;;19.15;11.80;;;16.60;95.10;;;;;;5011034;28;20033;-85
2023/05/14 01:16:57;;;;;;;18.38;11.05;;;16.50;95.00;;;;;;5025300;28;20032;-88
2023/05/14 01:19:28;;;;;;;20.88;11.88;;;16.50;95.10;;;;;;5032584;28;20340;-89
2023/05/14 01:21:54;;;;;;;20.48;11.85;;;16.40;95.10;;;;;;5009138;28;20100;-85
2023/05/14 01:24:20;;;;;;;21.27;12.17;;;16.40;95.10;;;;;;5022875;28;20062;-84
2023/05/14 01:26:45;;;;;;;23.15;13.38;;;16.30;95.20;;;;;;5023120;28;20037;-85
2023/05/14 01:29:22;;;;;;;19.83;11.87;;;16.30;95.20;;;;;;5035539;28;20603;-87
2023/05/14 01:31:50;;;;;;;19.67;11.82;;;16.20;95.00;;;;;;5015530;28;20029;-85
2023/05/14 01:34:21;;;;;;;18.52;11.48;;;16.20;95.10;;;;;;5027188;28;20041;-91
2023/05/14 01:36:47;;;;;;;19.00;11.18;;;16.10;95.10;;;;;;5024400;28;20454;-87
2023/05/14 01:39:14;;;;;;;19.47;11.63;;;16.10;95.20;;;;;;5038083;28;20413;-90
2023/05/14 01:41:41;;;;;;;18.77;11.32;;;16.00;95.20;;;;;;5017198;28;20642;-86
2023/05/14 01:44:08;;;;;;;20.48;12.13;;;16.00;95.30;;;;;;5032465;28;20501;-84
2023/05/14 01:46:34;;;;;;;22.20;12.15;;;16.00;95.30;;;;;;4990057;28;20355;-87
2023/05/14 01:49:00;;;;;;;21.77;12.80;;;15.90;95.20;;;;;;5038263;28;20026;-85
2023/05/14 01:51:26;;;;;;;19.63;12.03;;;15.90;95.30;;;;;;5038916;28;20317;-87
2023/05/14 01:53:52;;;;;;;19.70;12.35;;;15.80;95.30;;;;;;5028594;28;20064;-84
2023/05/14 01:56:23;;;;;;;23.58;12.45;;;15.80;95.40;;;;;;5001622;28;20112;-87
2023/05/14 01:58:49;;;;;;;18.77;11.23;;;15.70;95.40;;;;;;5035646;28;20049;-88
2023/05/14 02:01:15;;;;;;;18.60;11.38;;;15.70;95.50;;;;;;5004641;28;20048;-86
2023/05/14 02:03:41;;;;;;;20.08;12.55;;;15.60;95.50;;;;;;5034777;28;20025;-87
2023/05/14 02:06:07;;;;;;;22.73;13.15;;;15.60;95.90;;;;;;5031690;28;20021;-86
2023/05/14 02:08:32;;;;;;;21.63;12.67;;;15.60;95.60;;;;;;5023265;28;20706;-91
2023/05/14 02:10:58;;;;;;;21.45;12.77;;;15.60;95.60;;;;;;5028563;28;20159;-85
2023/05/14 02:13:25;;;;;;;22.53;12.70;;;15.50;95.60;;;;;;5028523;28;20377;-88
2023/05/14 02:15:51;;;;;;;20.67;12.70;;;15.50;95.60;;;;;;5030551;28;20033;-91
2023/05/14 02:18:17;;;;;;;21.08;12.40;;;15.50;95.70;;;;;;5008342;28;20333;-88
2023/05/14 02:20:42;;;;;;;22.57;12.93;;;15.40;95.70;;;;;;5041087;28;20028;-87
2023/05/14 02:23:08;;;;;;;22.13;12.73;;;15.40;95.70;;;;;;5018434;28;20043;-85
2023/05/14 02:25:34;;;;;;;20.60;11.73;;;15.40;95.80;;;;;;5022567;28;20466;-86
2023/05/14 02:28:00;;;;;;;22.52;12.95;;;15.40;95.80;;;;;;5020783;28;20111;-86
2023/05/14 02:30:25;;;;;;;20.03;11.97;;;15.30;95.90;;;;;;5024446;28;20577;-88
2023/05/14 02:32:51;;;;;;;21.53;12.43;;;15.30;95.90;;;;;;5007215;28;20295;-87
2023/05/14 02:35:17;;;;;;;22.85;12.82;;;15.30;96.20;;;;;;5028080;28;20304;-87
2023/05/14 02:37:43;;;;;;;22.83;12.60;;;15.20;95.90;;;;;;5030312;28;20490;-89
2023/05/14 02:40:09;;;;;;;21.93;12.43;;;15.20;95.90;;;;;;5015440;28;20025;-85
2023/05/14 02:42:35;;;;;;;21.00;12.50;;;15.20;96.00;;;;;;5011776;28;20586;-87
2023/05/14 02:45:01;;;;;;;22.48;12.75;;;15.20;96.00;;;;;;5045310;28;20027;-86
2023/05/14 02:47:27;;;;;;;21.45;12.63;;;15.10;95.90;;;;;;4983324;28;20909;-86
2023/05/14 02:49:53;;;;;;;23.40;12.87;;;15.10;96.00;;;;;;5026631;28;20025;-89
2023/05/14 02:52:19;;;;;;;20.25;12.38;;;15.10;96.00;;;;;;5032707;28;20068;-86
2023/05/14 02:54:45;;;;;;;22.77;11.95;;;15.00;96.10;;;;;;5020237;28;20130;-86
2023/05/14 02:57:11;;;;;;;21.83;12.33;;;15.00;96.10;;;;;;5044623;28;20101;-91
2023/05/14 02:59:37;;;;;;;22.63;12.18;;;15.00;96.10;;;;;;5021842;28;20150;-91
2023/05/14 03:02:03;;;;;;;21.20;12.15;;;15.00;96.20;;;;;;5032337;28;20036;-88
2023/05/14 03:04:29;;;;;;;21.00;11.90;;;14.90;96.20;;;;;;5008578;28;20021;-86
2023/05/14 03:06:54;;;;;;;19.77;11.77;;;14.90;96.20;;;;;;5049546;28;20017;-88
2023/05/14 03:09:20;;;;;;;21.63;11.53;;;14.90;96.20;;;;;;5007671;28;20041;-86
2023/05/14 03:11:46;;;;;;;21.80;12.40;;;14.90;96.20;;;;;;5012894;28;20244;-88
2023/05/14 03:14:12;;;;;;;21.25;11.85;;;14.80;96.20;;;;;;5027057;28;20163;-87
2023/05/14 03:16:38;;;;;;;21.67;12.40;;;14.80;96.20;;;;;;5040544;28;20032;-88
2023/05/14 03:19:04;;;;;;;19.33;11.45;;;14.80;96.20;;;;;;5012676;28;20032;-88
2023/05/14 03:21:30;;;;;;;21.20;11.33;;;14.80;96.20;;;;;;5032182;28;20611;-86
2023/05/14 03:23:56;;;;;;;20.65;11.95;;;14.80;96.30;;;;;;5037953;28;20021;-88
2023/05/14 03:26:22;;;;;;;22.75;12.13;;;14.70;96.30;;;;;;5022133;28;20479;-86
2023/05/14 03:28:49;;;;;;;20.67;11.63;;;14.70;96.30;;;;;;5034081;28;20029;-87
2023/05/14 03:31:14;;;;;;;20.80;11.30;;;14.70;96.30;;;;;;5010585;28;20392;-86
2023/05/14 03:33:40;;;;;;;22.13;12.15;;;14.60;96.40;;;;;;5030568;28;20437;-87
2023/05/14 03:36:06;;;;;;;22.60;12.05;;;14.60;96.40;;;;;;5016759;28;20101;-90
2023/05/14 03:38:32;;;;;;;19.83;11.13;;;14.50;96.40;;;;;;5051438;28;20127;-87
2023/05/14 03:40:58;;;;;;;19.08;11.25;;;14.50;96.50;;;;;;5029204;28;20028;-86
2023/05/14 03:43:24;;;;;;;21.60;11.53;;;14.50;96.60;;;;;;5028921;28;20044;-86
2023/05/14 03:45:51;;;;;;;19.67;11.40;;;14.50;96.60;;;;;;5012480;28;20107;-88
2023/05/14 03:48:20;;;;;;;20.30;11.60;;;14.50;96.50;;;;;;5046011;28;20029;-87
2023/05/14 03:50:46;;;;;;;22.92;11.18;;;14.50;96.60;;;;;;5011950;28;20029;-89
2023/05/14 03:53:12;;;;;;;20.52;11.40;;;14.40;96.60;;;;;;5014465;28;20052;-88
2023/05/14 03:55:38;;;;;;;22.87;12.07;;;14.40;96.70;;;;;;5043613;28;20028;-86
2023/05/14 03:58:09;;;;;;;22.13;12.05;;;14.40;96.70;;;;;;5027607;28;20135;-88
2023/05/14 04:00:35;;;;;;;20.07;11.40;;;14.40;96.70;;;;;;5041554;28;20040;-86
2023/05/14 04:03:01;;;;;;;21.83;11.98;;;14.30;96.70;;;;;;5053205;28;20237;-86
2023/05/14 04:05:27;;;;;;;21.27;11.65;;;14.40;96.70;;;;;;5010426;28;20112;-87
2023/05/14 04:07:53;;;;;;;19.83;11.10;;;14.30;96.70;;;;;;5037783;28;20086;-88
2023/05/14 04:10:18;;;;;;;19.90;11.35;;;14.30;96.80;;;;;;5036683;28;20029;-87
2023/05/14 04:12:44;;;;;;;19.70;11.63;;;14.30;96.80;;;;;;5019784;28;20551;-86
2023/05/14 04:15:11;;;;;;;21.70;11.73;;;14.30;96.80;;;;;;5046368;28;20603;-86
2023/05/14 04:17:37;;;;;;;19.85;10.98;;;14.20;96.80;;;;;;5024928;28;20064;-86
2023/05/14 04:20:03;;;;;;;19.80;10.95;;;14.20;96.90;;;;;;4985897;28;20031;-87
2023/05/14 04:22:29;;;;;;;21.03;11.37;;;14.20;97.00;;;;;;5036965;28;20040;-87
2023/05/14 04:24:55;;;;;;;19.00;10.38;;;14.20;97.00;;;;;;5027808;28;20139;-87
2023/05/14 04:27:21;;;;;;;19.40;10.75;;;14.20;97.00;;;;;;5037098;28;20478;-86
2023/05/14 04:29:47;;;;;;;18.57;9.80;;;14.20;97.10;;;;;;5020924;28;20094;-86
2023/05/14 04:32:13;;;;;;;20.58;10.80;;;14.20;97.10;;;;;;5033665;28;20361;-86
2023/05/14 04:34:40;;;;;;;19.20;10.60;;;14.20;97.20;;;;;;5002463;28;20406;-85
2023/05/14 04:37:05;;;;;;;18.50;10.70;;;14.20;97.30;;;;;;5004872;28;20210;-87
2023/05/14 04:39:31;;;;;;;17.43;9.80;;;14.20;97.50;;;;;;5030329;28;20708;-90
2023/05/14 04:41:57;;;;;;;20.02;10.18;;;14.20;97.60;;;;;;5014689;28;20086;-88
2023/05/14 04:44:22;;;;;;;18.63;10.37;;;14.20;97.80;;;;;;5041042;28;20487;-87
2023/05/14 04:46:48;;;;;;;23.17;11.25;;;14.30;97.90;;;;;;5029368;28;20308;-85
2023/05/14 04:49:14;;;;;;;21.63;10.67;;;14.30;98.10;;;;;;5022411;28;20588;-90
2023/05/14 04:51:40;;;;;;;21.25;10.70;;;14.30;98.10;;;;;;5018052;28;20024;-85
2023/05/14 04:54:06;;;;;;;20.03;10.43;;;14.40;98.20;;;;;;5014828;28;20328;-89
2023/05/14 04:56:31;;;;;;;22.73;10.90;;;14.40;98.30;;;;;;5048410;28;20282;-91
2023/05/14 04:58:57;;;;;;;22.10;10.90;;;14.50;98.40;;;;;;5016363;28;20029;-86
2023/05/14 05:01:23;;;;;;;21.02;10.88;;;14.50;98.50;;;;;;5014436;28;22530;-88
2023/05/14 05:03:49;;;;;;;21.98;10.40;;;14.50;98.70;;;;;;5030012;28;20021;-87
2023/05/14 05:06:15;;;;;;;22.02;10.63;;;14.60;98.80;;;;;;5013276;28;21143;-85
2023/05/14 05:08:41;;;;;;;22.53;10.57;;;14.60;98.90;;;;;;5007282;28;20273;-88
2023/05/14 05:11:07;;;;;;;20.63;10.23;;;14.70;99.00;;;;;;5035649;28;20025;-85
2023/05/14 05:13:33;;;;;;;23.40;11.02;;;14.80;99.10;;;;;;5019030;28;20031;-89
2023/05/14 05:15:59;;;;;;;24.67;11.17;;;14.90;99.10;;;;;;5039183;28;20055;-86
2023/05/14 05:18:25;;;;;;;23.83;10.90;;;14.90;99.20;;;;;;5033033;28;20099;-84
2023/05/14 05:20:51;;;;;;;24.85;11.55;;;15.00;99.20;;;;;;5018418;28;20036;-91
2023/05/14 05:23:17;;;;;;;24.07;10.87;;;15.00;99.30;;;;;;4986046;28;20472;-81
2023/05/14 05:25:42;;;;;;;26.65;11.68;;;15.10;99.40;;;;;;5047258;28;20478;-87
2023/05/14 05:28:08;;;;;;;24.97;11.27;;;15.20;99.50;;;;;;5016781;28;20501;-88
2023/05/14 05:30:34;;;;;;;26.92;12.18;;;15.20;99.40;;;;;;5039587;28;20537;-82
2023/05/14 05:33:00;;;;;;;23.70;11.32;;;15.30;99.40;;;;;;5045545;28;20064;-85
2023/05/14 05:35:26;;;;;;;24.52;11.52;;;15.30;99.30;;;;;;5041526;28;20064;-88
2023/05/14 05:37:52;;;;;;;25.93;12.03;;;15.30;99.40;;;;;;5021867;28;20028;-84
2023/05/14 05:40:17;;;;;;;28.40;11.87;;;15.40;99.50;;;;;;5007800;28;20068;-84
2023/05/14 05:42:43;;;;;;;23.67;11.23;;;15.40;99.50;;;;;;5006147;28;20299;-90
2023/05/14 05:45:09;;;;;;;25.38;11.90;;;15.50;99.60;;;;;;5032228;28;20021;-82
2023/05/14 05:47:35;;;;;;;25.17;11.52;;;15.50;99.70;;;;;;5024429;28;20017;-88
2023/05/14 05:50:01;;;;;;;26.57;11.73;;;15.60;99.90;;;;;;5032961;28;20025;-85
2023/05/14 05:52:27;;;;;;;26.63;11.88;;;15.60;99.90;;;;;;5019452;28;20510;-89
2023/05/14 05:54:53;;;;;;;25.27;12.70;;;15.70;99.90;;;;;;4992647;28;20029;-83
2023/05/14 05:57:20;;;;;;;28.67;12.80;;;15.70;99.90;;;;;;5034387;28;20029;-85
2023/05/14 05:59:46;;;;;;;26.38;12.65;;;15.80;99.90;;;;;;5022230;28;20021;-81
2023/05/14 06:02:12;;;;;;;26.27;12.40;;;15.80;99.80;;;;;;5027283;28;20029;-83
2023/05/14 06:04:38;;;;;;;29.07;12.73;;;15.90;99.80;;;;;;5032708;28;20021;-81
2023/05/14 06:07:04;;;;;;;27.23;12.18;;;15.90;99.70;;;;;;5006471;28;20023;-80
2023/05/14 06:09:30;;;;;;;25.50;11.57;;;15.90;99.60;;;;;;5008524;28;20465;-83
2023/05/14 06:11:56;;;;;;;25.80;11.83;;;15.90;99.60;;;;;;4999807;28;20064;-81
2023/05/14 06:14:22;;;;;;;28.10;11.80;;;15.90;99.70;;;;;;5012101;28;20329;-80
2023/05/14 06:16:47;;;;;;;27.30;12.63;;;16.00;99.70;;;;;;5030213;28;20061;-90
2023/05/14 06:19:14;;;;;;;26.37;12.17;;;16.00;99.80;;;;;;5023889;28;20666;-83
2023/05/14 06:21:39;;;;;;;25.25;11.48;;;16.00;99.90;;;;;;5017958;28;20020;-84
2023/05/14 06:24:06;;;;;;;27.80;12.85;;;16.00;99.90;;;;;;5020855;28;20386;-83
2023/05/14 06:26:32;;;;;;;25.43;11.70;;;16.10;99.90;;;;;;4984383;28;20225;-86
2023/05/14 06:28:58;;;;;;;26.50;12.38;;;16.10;99.90;;;;;;5042980;28;20116;-82
2023/05/14 06:31:23;;;;;;;29.27;12.63;;;16.20;99.90;;;;;;5011653;28;20172;-81
2023/05/14 06:33:49;;;;;;;26.67;12.87;;;16.20;99.90;;;;;;5046646;28;20116;-81
2023/05/14 06:36:15;;;;;;;30.23;12.93;;;16.30;99.90;;;;;;5016179;28;20505;-83
2023/05/14 06:38:41;;;;;;;27.83;12.37;;;16.30;99.90;;;;;;5024143;28;20033;-83
2023/05/14 06:41:07;;;;;;;25.05;12.48;;;16.40;99.90;;;;;;4994449;28;20344;-82
2023/05/14 06:43:32;;;;;;;27.95;13.25;;;16.50;99.90;;;;;;5028304;28;20122;-83
2023/05/14 06:45:58;;;;;;;27.53;12.53;;;16.60;99.90;;;;;;5014327;28;20060;-86
2023/05/14 06:48:26;;;;;;;27.55;12.88;;;16.60;99.90;;;;;;5028846;28;20154;-79
2023/05/14 06:50:52;;;;;;;29.73;13.60;;;16.70;99.90;;;;;;5020004;28;20139;-82
2023/05/14 06:53:18;;;;;;;28.70;12.77;;;16.80;99.90;;;;;;5043698;28;20057;-81
2023/05/14 06:55:46;;;;;;;27.85;13.20;;;16.90;99.90;;;;;;5024118;28;20120;-87
2023/05/14 06:58:12;;;;;;;29.92;13.38;;;16.90;99.90;;;;;;4993450;28;20033;-82
2023/05/14 07:00:39;;;;;;;29.92;13.32;;;17.00;99.90;;;;;;5009915;28;20156;-79
2023/05/14 07:03:04;;;;;;;28.97;13.90;;;17.10;99.90;;;;;;5027788;28;20025;-82
2023/05/14 07:05:30;;;;;;;29.20;13.88;;;17.20;99.90;;;;;;5018428;28;21407;-81
2023/05/14 07:07:56;;;;;;;28.60;13.60;;;17.20;99.90;;;;;;5032212;28;20075;-83
2023/05/14 07:10:23;;;;;;;31.17;13.80;;;17.30;99.90;;;;;;5031153;28;20257;-81
2023/05/14 07:12:49;;;;;;;27.42;13.32;;;17.30;99.90;;;;;;4997485;28;20021;-85
2023/05/14 07:15:15;;;;;;;27.10;12.63;;;17.30;99.90;;;;;;5027444;28;20048;-81
2023/05/14 07:17:41;;;;;;;27.30;12.82;;;17.30;99.90;;;;;;5004809;28;20549;-82
2023/05/14 07:20:08;;;;;;;27.87;13.17;;;17.30;99.90;;;;;;5030698;28;20463;-79
2023/05/14 07:22:33;;;;;;;25.58;12.85;;;17.30;99.90;;;;;;5010179;28;20021;-83
2023/05/14 07:24:59;;;;;;;27.27;13.95;;;17.30;99.90;;;;;;5032676;28;20429;-85
2023/05/14 07:27:25;;;;;;;23.83;12.53;;;17.30;99.90;;;;;;5027092;28;20489;-79
2023/05/14 07:29:51;;;;;;;26.80;13.55;;;17.30;99.90;;;;;;5018157;28;20512;-82
2023/05/14 07:32:17;;;;;;;25.25;12.73;;;17.40;99.90;;;;;;5020646;28;20083;-85
2023/05/14 07:34:42;;;;;;;27.53;13.60;;;17.40;99.90;;;;;;5045098;28;20041;-81
2023/05/14 07:37:08;;;;;;;24.30;13.25;;;17.50;99.90;;;;;;5023904;28;20029;-82
2023/05/14 07:39:34;;;;;;;25.27;13.60;;;17.60;99.90;;;;;;5038230;28;20427;-84
2023/05/14 07:42:00;;;;;;;24.23;13.03;;;17.70;99.90;;;;;;5040757;28;20094;-79
2023/05/14 07:44:26;;;;;;;22.80;12.68;;;17.80;99.90;;;;;;5010426;28;20036;-81
2023/05/14 07:46:52;;;;;;;24.80;13.07;;;17.90;99.90;;;;;;5032421;28;20678;-89
2023/05/14 07:49:18;;;;;;;23.43;13.03;;;18.00;99.90;;;;;;5039187;28;20036;-89
2023/05/14 07:51:44;;;;;;;23.25;12.75;;;18.10;99.90;;;;;;5036713;28;20029;-81
2023/05/14 07:54:10;;;;;;;23.60;12.63;;;18.20;99.90;;;;;;5036507;28;20071;-81
2023/05/14 07:56:36;;;;;;;21.45;12.73;;;18.30;99.90;;;;;;5055997;28;20112;-81
2023/05/14 07:59:01;;;;;;;21.02;12.77;;;18.40;99.90;;;;;;5001586;28;25243;-81
2023/05/14 08:01:27;;;;;;;22.80;12.93;;;18.40;99.90;;;;;;5038383;28;20036;-82
2023/05/14 08:03:53;;;;;;;21.63;12.48;;;18.50;99.90;;;;;;5006997;28;20488;-81
2023/05/14 08:06:20;;;;;;;21.80;12.75;;;18.60;99.90;;;;;;5042814;28;20055;-86
2023/05/14 08:08:46;;;;;;;19.57;12.03;;;18.70;99.90;;;;;;5025257;28;20033;-83
2023/05/14 08:11:12;;;;;;;21.85;12.00;;;18.80;99.90;;;;;;5037053;28;20035;-85
2023/05/14 08:13:38;;;;;;;21.55;12.88;;;18.80;99.90;;;;;;5015718;28;20035;-81
2023/05/14 08:16:05;;;;;;;19.88;12.18;;;18.80;99.90;;;;;;5013416;28;20032;-84
2023/05/14 08:18:30;;;;;;;22.23;13.17;;;18.80;99.90;;;;;;5034800;28;20021;-84
2023/05/14 08:20:56;;;;;;;24.40;13.48;;;18.80;99.90;;;;;;5032998;28;20037;-81
2023/05/14 08:23:22;;;;;;;22.23;12.87;;;18.80;99.90;;;;;;5028367;28;20147;-83
2023/05/14 08:25:47;;;;;;;20.92;12.82;;;18.80;99.90;;;;;;5011616;28;20818;-81
2023/05/14 08:28:13;;;;;;;21.10;12.40;;;18.80;99.90;;;;;;5008068;28;20033;-81
2023/05/14 08:30:39;;;;;;;19.15;12.00;;;18.90;99.90;;;;;;5001712;28;20045;-81
2023/05/14 08:33:05;;;;;;;21.10;12.93;;;19.00;99.90;;;;;;5026835;28;20646;-85
2023/05/14 08:35:31;;;;;;;19.30;12.17;;;19.10;99.90;;;;;;5022255;28;20173;-87
2023/05/14 08:37:56;;;;;;;20.05;11.60;;;19.20;99.90;;;;;;5035471;28;20032;-81
2023/05/14 08:40:22;;;;;;;19.40;11.47;;;19.40;99.90;;;;;;5019928;28;20223;-84
2023/05/14 08:42:50;;;;;;;20.13;12.82;;;19.50;99.90;;;;;;5034127;28;20585;-86
2023/05/14 08:45:24;;;;;;;20.92;12.77;;;19.70;99.90;;;;;;5003577;28;20530;-80
2023/05/14 08:47:50;;;;;;;20.95;12.90;;;19.90;99.90;;;;;;5028366;28;20029;-81
2023/05/14 08:50:18;;;;;;;20.93;12.97;;;20.10;99.90;;;;;;5019767;28;20511;-81
2023/05/14 08:52:44;;;;;;;18.60;12.43;;;20.20;99.90;;;;;;5025938;28;20815;-82
2023/05/14 08:55:11;;;;;;;18.95;11.90;;;20.50;99.90;;;;;;5025977;28;20667;-81
2023/05/14 08:57:38;;;;;;;19.98;12.55;;;20.60;99.90;;;;;;5034881;28;20033;-81
2023/05/14 09:00:07;;;;;;;19.63;12.43;;;20.80;99.90;;;;;;5009305;28;20041;-83
2023/05/14 09:02:34;;;;;;;20.50;13.20;;;21.00;99.90;;;;;;5031410;28;20025;-80
2023/05/14 09:05:01;;;;;;;19.65;12.70;;;21.10;99.90;;;;;;5021794;28;20043;-81
2023/05/14 09:07:27;;;;;;;20.02;13.13;;;21.30;99.90;;;;;;5025865;28;20071;-81
2023/05/14 09:09:54;;;;;;;19.50;13.00;;;21.60;99.90;;;;;;5050668;28;20685;-79
2023/05/14 09:12:20;;;;;;;16.80;12.25;;;21.80;99.90;;;;;;5032990;28;20052;-81
2023/05/14 09:14:48;;;;;;;18.87;12.83;;;22.00;99.90;;;;;;5034311;28;20032;-83
2023/05/14 09:17:15;;;;;;;17.58;12.40;;;22.30;99.90;;;;;;5020054;28;20025;-81
2023/05/14 09:19:42;;;;;;;17.02;11.82;;;22.60;99.90;;;;;;5034254;28;20041;-82
2023/05/14 09:22:11;;;;;;;18.40;12.57;;;22.90;99.90;;;;;;5009081;28;20243;-80
2023/05/14 09:24:38;;;;;;;17.95;13.02;;;23.10;99.90;;;;;;5048844;28;20529;-81
2023/05/14 09:27:04;;;;;;;17.10;12.27;;;23.20;99.90;;;;;;5025330;28;20064;-80
2023/05/14 09:29:30;;;;;;;17.67;12.57;;;23.40;99.90;;;;;;5033210;28;20124;-86
2023/05/14 09:31:58;;;;;;;18.80;12.85;;;23.50;99.90;;;;;;4982439;28;20122;-80
2023/05/14 09:34:29;;;;;;;16.60;12.45;;;23.80;99.90;;;;;;5033411;28;20021;-84
2023/05/14 09:37:00;;;;;;;15.32;11.98;;;24.10;99.90;;;;;;5017538;28;20056;-81
2023/05/14 09:39:29;;;;;;;14.93;11.90;;;24.40;99.90;;;;;;5012758;28;20025;-81
2023/05/14 09:41:56;;;;;;;15.70;12.57;;;24.70;99.90;;;;;;5027972;28;20118;-90
2023/05/14 09:44:23;;;;;;;15.35;11.52;;;25.00;99.90;;;;;;5021954;28;20025;-83
2023/05/14 09:46:50;;;;;;;15.63;12.25;;;25.20;99.60;;;;;;5009234;28;20110;-85
2023/05/14 09:49:16;;;;;;;15.27;12.48;;;25.30;99.10;;;;;;5048491;28;20025;-81
2023/05/14 09:51:42;;;;;;;14.27;11.53;;;25.40;99.10;;;;;;5030174;28;20063;-82
2023/05/14 09:54:08;;;;;;;16.88;12.13;;;25.50;99.30;;;;;;5032568;28;20143;-86
2023/05/14 09:56:35;;;;;;;14.95;11.77;;;25.60;99.10;;;;;;5035539;28;20059;-87
2023/05/14 09:59:01;;;;;;;16.30;12.33;;;25.60;98.50;;;;;;5031473;28;20540;-83
2023/05/14 10:01:28;;;;;;;14.68;11.85;;;25.70;98.60;;;;;;5036342;28;20483;-80
2023/05/14 10:03:56;;;;;;;16.50;12.10;;;25.80;98.80;;;;;;4988033;28;20554;-81
2023/05/14 10:06:29;;;;;;;14.30;11.95;;;25.90;99.10;;;;;;5033089;28;20581;-80
2023/05/14 10:09:00;;;;;;;13.73;11.85;;;26.10;98.60;;;;;;5019329;28;20569;-80
2023/05/14 10:11:30;;;;;;;13.77;11.27;;;26.30;98.90;;;;;;5024789;28;20013;-79
2023/05/14 10:14:17;;;;;;;13.52;11.52;;;26.60;99.00;;;;;;5019394;28;20149;-78
2023/05/14 10:16:50;;;;;;;12.82;11.13;;;26.90;97.10;;;;;;5029954;28;20036;-80
2023/05/14 10:19:18;;;;;;;13.02;11.63;;;27.20;98.00;;;;;;5014890;28;20462;-80
2023/05/14 10:21:48;;;;;;;14.43;11.95;;;27.50;99.20;;;;;;5026723;28;20053;-80
2023/05/14 10:24:14;;;;;;;13.27;11.03;;;27.80;97.50;;;;;;5018069;28;20493;-79
2023/05/14 10:26:41;;;;;;;13.07;11.18;;;27.90;97.50;;;;;;5039108;28;20772;-79
2023/05/14 10:29:11;;;;;;;14.43;11.85;;;28.00;97.50;;;;;;5007568;28;20126;-81
2023/05/14 10:31:52;;;;;;;13.38;11.93;;;28.10;96.30;;;;;;5050919;28;20090;-80
2023/05/14 10:34:40;;;;;;;14.05;11.98;;;28.20;94.80;;;;;;4980241;28;20033;-78
2023/05/14 10:37:12;;;;;;;13.67;11.63;;;28.40;95.20;;;;;;5029709;28;20637;-80
2023/05/14 10:39:51;;;;;;;13.55;12.05;;;28.60;95.90;;;;;;5014029;28;20398;-78
2023/05/14 10:42:31;;;;;;;13.65;11.90;;;28.70;94.50;;;;;;5033107;28;20087;-80
2023/05/14 10:45:06;;;;;;;12.45;11.15;;;28.70;94.00;;;;;;5026791;28;20028;-79
2023/05/14 10:47:33;;;;;;;13.35;11.88;;;28.70;94.80;;;;;;5028236;28;20414;-81
2023/05/14 10:50:10;;;;;;;12.27;10.97;;;28.70;96.80;;;;;;5001519;28;20411;-80
2023/05/14 10:52:36;;;;;;;12.25;10.95;;;28.90;96.60;;;;;;5007968;28;20557;-80
2023/05/14 10:55:07;;;;;;;12.95;11.55;;;29.00;97.10;;;;;;5018899;28;20664;-82
2023/05/14 10:57:37;;;;;;;12.93;11.63;;;29.20;96.60;;;;;;5018833;28;20594;-79
2023/05/14 11:00:11;;;;;;;12.68;11.38;;;29.40;96.90;;;;;;5030109;28;20082;-81
2023/05/14 11:02:39;;;;;;;12.67;11.37;;;29.70;97.20;;;;;;5020442;28;20032;-80
2023/05/14 11:05:09;;;;;;;12.88;11.48;;;29.90;96.60;;;;;;5014984;28;20604;-80
2023/05/14 11:07:48;;;;;;;13.25;11.85;;;30.10;96.00;;;;;;5017233;28;20572;-79
2023/05/14 11:10:20;;;;;;;13.15;11.20;;;30.30;94.40;;;;;;5015964;28;20535;-80
2023/05/14 11:12:47;;;;;;;13.00;11.70;;;30.40;95.20;;;;;;5021821;28;20041;-79
2023/05/14 11:15:20;;;;;;;12.27;10.97;;;30.50;95.00;;;;;;5037758;28;20412;-80
2023/05/14 11:17:46;;;;;;;11.88;10.60;;;30.60;94.70;;;;;;5037157;28;20021;-79
2023/05/14 11:20:13;;;;;;;12.05;10.73;;;30.70;95.10;;;;;;5042296;28;20548;-80
2023/05/14 11:22:40;;;;;;;12.13;10.93;;;30.90;95.40;;;;;;5004710;28;20407;-80
2023/05/14 11:25:07;;;;;;;12.05;10.85;;;30.90;94.90;;;;;;5036615;28;20032;-81
2023/05/14 11:27:35;;;;;;;11.80;10.60;;;31.10;94.90;;;;;;5016149;28;20219;-81
2023/05/14 11:30:02;;;;;;;12.52;10.75;;;31.20;94.40;;;;;;5007995;28;20033;-78
2023/05/14 11:32:31;;;;;;;12.40;11.05;;;31.40;94.90;;;;;;5044986;28;20028;-80
2023/05/14 11:34:58;;;;;;;12.20;10.82;;;31.60;93.50;;;;;;5025947;28;20037;-78
2023/05/14 11:37:24;;;;;;;11.55;10.02;;;31.70;94.50;;;;;;5021027;28;20444;-79
2023/05/14 11:39:54;;;;;;;11.93;10.03;;;31.90;94.30;;;;;;5053317;28;20033;-80
2023/05/14 11:42:21;;;;;;;12.27;11.00;;;32.00;92.00;;;;;;5022377;28;20020;-78
2023/05/14 11:44:51;;;;;;;11.88;10.40;;;32.10;93.10;;;;;;5014937;28;20131;-81
2023/05/14 11:47:18;;;;;;;11.63;10.40;;;32.20;91.50;;;;;;5038520;28;20052;-79
2023/05/14 11:49:44;;;;;;;11.27;10.17;;;32.30;92.20;;;;;;5030627;28;20254;-79
2023/05/14 11:52:15;;;;;;;11.30;9.80;;;32.30;92.50;;;;;;5018084;28;20045;-80
2023/05/14 11:54:42;;;;;;;11.88;10.43;;;32.40;92.10;;;;;;5004383;28;20222;-80
2023/05/14 11:57:15;;;;;;;11.75;10.50;;;32.50;91.80;;;;;;5028756;28;20163;-81
2023/05/14 11:59:41;;;;;;;12.32;9.98;;;32.60;90.00;;;;;;5022774;28;20528;-80
2023/05/14 12:02:13;;;;;;;11.23;10.13;;;32.60;91.80;;;;;;5035432;28;20414;-78
2023/05/14 12:04:41;;;;;;;10.88;9.77;;;32.70;91.50;;;;;;5018426;28;20033;-81
2023/05/14 12:07:13;;;;;;;11.55;10.45;;;32.80;91.10;;;;;;5041355;28;20032;-82
2023/05/14 12:09:48;;;;;;;11.50;10.07;;;33.00;88.80;;;;;;4979461;28;20264;-81
2023/05/14 12:12:19;;;;;;;10.45;9.45;;;33.10;90.80;;;;;;5037086;28;20036;-81
2023/05/14 12:14:45;;;;;;;11.47;10.37;;;33.20;90.70;;;;;;5015568;28;21050;-80
2023/05/14 12:17:16;;;;;;;11.50;10.40;;;33.30;90.70;;;;;;5028753;28;20370;-83
2023/05/14 12:19:43;;;;;;;10.63;9.13;;;33.30;86.70;;;;;;5034560;28;20114;-81
2023/05/14 12:22:16;;;;;;;10.32;9.32;;;33.30;89.50;;;;;;5020321;28;20025;-81
2023/05/14 12:24:51;;;;;;;9.93;8.80;;;33.40;84.00;;;;;;5019348;28;21240;-80
2023/05/14 12:27:20;;;;;;;9.03;8.17;;;33.30;87.70;;;;;;5027555;28;20029;-82